sensor_id;sensor_type;location;lat;lon;timestamp;temperature;humidity
14682;DHT22;7429;52.498;13.480;2022-09-06T00:00:27;16.50;99.90
14682;DHT22;7429;52.498;13.480;2022-09-06T00:03:30;16.40;99.90
14682;DHT22;7429;52.498;13.480;2022-09-06T00:06:34;16.40;99.90
14682;DHT22;7429;52.498;13.480;2022-09-06T00:09:37;16.40;99.90
14682;DHT22;7429;52.498;13.480;2022-09-06T00:12:40;16.30;99.90
14682;DHT22;7429;52.498;13.480;2022-09-06T00:15:45;16.30;99.90
14682;DHT22;7429;52.498;13.480;2022-09-06T00:18:48;16.30;99.90
14682;DHT22;7429;52.498;13.480;2022-09-06T00:21:54;16.20;99.90
14682;DHT22;7429;52.498;13.480;2022-09-06T00:24:56;16.20;99.90
14682;DHT22;7429;52.498;13.480;2022-09-06T00:28:02;16.10;99.90
14682;DHT22;7429;52.498;13.480;2022-09-06T00:31:12;16.10;99.90
14682;DHT22;7429;52.498;13.480;2022-09-06T00:34:16;16.10;99.90
14682;DHT22;7429;52.498;13.480;2022-09-06T00:37:19;16.10;99.90
14682;DHT22;7429;52.498;13.480;2022-09-06T00:40:22;16.00;99.90
14682;DHT22;7429;52.498;13.480;2022-09-06T00:43:25;15.90;99.90
14682;DHT22;7429;52.498;13.480;2022-09-06T00:46:30;15.90;99.90
14682;DHT22;7429;52.498;13.480;2022-09-06T00:49:38;15.90;99.90
14682;DHT22;7429;52.498;13.480;2022-09-06T00:52:45;15.90;99.90
14682;DHT22;7429;52.498;13.480;2022-09-06T00:55:49;15.80;99.90
14682;DHT22;7429;52.498;13.480;2022-09-06T00:58:54;15.80;99.90
14682;DHT22;7429;52.498;13.480;2022-09-06T01:01:58;15.80;99.90
14682;DHT22;7429;52.498;13.480;2022-09-06T01:05:02;15.70;99.90
14682;DHT22;7429;52.498;13.480;2022-09-06T01:08:12;15.70;99.90
14682;DHT22;7429;52.498;13.480;2022-09-06T01:11:48;15.70;99.90
14682;DHT22;7429;52.498;13.480;2022-09-06T01:15:06;15.70;99.90
14682;DHT22;7429;52.498;13.480;2022-09-06T01:18:23;15.60;99.90
14682;DHT22;7429;52.498;13.480;2022-09-06T01:21:39;15.60;99.90
14682;DHT22;7429;52.498;13.480;2022-09-06T01:24:58;15.60;99.90
14682;DHT22;7429;52.498;13.480;2022-09-06T01:28:25;15.50;99.90
14682;DHT22;7429;52.498;13.480;2022-09-06T01:31:36;15.50;99.90
14682;DHT22;7429;52.498;13.480;2022-09-06T01:34:44;15.50;99.90
14682;DHT22;7429;52.498;13.480;2022-09-06T01:37:50;15.40;99.90
14682;DHT22;7429;52.498;13.480;2022-09-06T01:40:53;15.50;99.90
14682;DHT22;7429;52.498;13.480;2022-09-06T01:43:58;15.50;99.90
14682;DHT22;7429;52.498;13.480;2022-09-06T01:47:11;15.50;99.90
14682;DHT22;7429;52.498;13.480;2022-09-06T01:50:40;15.50;99.90
14682;DHT22;7429;52.498;13.480;2022-09-06T01:53:59;15.50;99.90
14682;DHT22;7429;52.498;13.480;2022-09-06T01:57:18;15.50;99.90
14682;DHT22;7429;52.498;13.480;2022-09-06T02:00:26;15.50;99.90
14682;DHT22;7429;52.498;13.480;2022-09-06T02:03:33;15.50;99.90
14682;DHT22;7429;52.498;13.480;2022-09-06T02:06:41;15.40;99.90
14682;DHT22;7429;52.498;13.480;2022-09-06T02:09:51;15.40;99.90
14682;DHT22;7429;52.498;13.480;2022-09-06T02:12:58;15.30;99.90
14682;DHT22;7429;52.498;13.480;2022-09-06T02:16:05;15.30;99.90
14682;DHT22;7429;52.498;13.480;2022-09-06T02:19:12;15.20;99.90
14682;DHT22;7429;52.498;13.480;2022-09-06T02:22:20;15.20;99.90
14682;DHT22;7429;52.498;13.480;2022-09-06T02:25:32;15.20;99.90
14682;DHT22;7429;52.498;13.480;2022-09-06T02:28:37;15.10;99.90
14682;DHT22;7429;52.498;13.480;2022-09-06T02:31:44;15.10;99.90
14682;DHT22;7429;52.498;13.480;2022-09-06T02:34:50;15.10;99.90
14682;DHT22;7429;52.498;13.480;2022-09-06T02:37:54;15.00;99.90
14682;DHT22;7429;52.498;13.480;2022-09-06T02:40:57;15.00;99.90
14682;DHT22;7429;52.498;13.480;2022-09-06T02:44:00;15.00;99.90
14682;DHT22;7429;52.498;13.480;2022-09-06T02:47:05;14.90;99.90
14682;DHT22;7429;52.498;13.480;2022-09-06T02:50:08;14.90;99.90
14682;DHT22;7429;52.498;13.480;2022-09-06T02:53:14;14.90;99.90
14682;DHT22;7429;52.498;13.480;2022-09-06T02:56:18;14.90;99.90
14682;DHT22;7429;52.498;13.480;2022-09-06T02:59:21;14.90;99.90
14682;DHT22;7429;52.498;13.480;2022-09-06T03:02:26;14.90;99.90
14682;DHT22;7429;52.498;13.480;2022-09-06T03:05:30;14.90;99.90
14682;DHT22;7429;52.498;13.480;2022-09-06T03:08:33;14.90;99.90
14682;DHT22;7429;52.498;13.480;2022-09-06T03:11:37;14.80;99.90
14682;DHT22;7429;52.498;13.480;2022-09-06T03:14:40;14.80;99.90
14682;DHT22;7429;52.498;13.480;2022-09-06T03:17:44;14.80;99.90
14682;DHT22;7429;52.498;13.480;2022-09-06T03:20:47;14.70;99.90
14682;DHT22;7429;52.498;13.480;2022-09-06T03:23:51;14.70;99.90
14682;DHT22;7429;52.498;13.480;2022-09-06T03:26:55;14.70;99.90
14682;DHT22;7429;52.498;13.480;2022-09-06T03:29:58;14.60;99.90
14682;DHT22;7429;52.498;13.480;2022-09-06T03:33:02;14.60;99.90
14682;DHT22;7429;52.498;13.480;2022-09-06T03:36:06;14.60;99.90
14682;DHT22;7429;52.498;13.480;2022-09-06T03:39:09;14.60;99.90
14682;DHT22;7429;52.498;13.480;2022-09-06T03:42:12;14.60;99.90
14682;DHT22;7429;52.498;13.480;2022-09-06T03:45:15;14.60;99.90
14682;DHT22;7429;52.498;13.480;2022-09-06T03:48:22;14.60;99.90
14682;DHT22;7429;52.498;13.480;2022-09-06T03:51:26;14.60;99.90
14682;DHT22;7429;52.498;13.480;2022-09-06T03:54:29;14.60;99.90
14682;DHT22;7429;52.498;13.480;2022-09-06T03:57:32;14.60;99.90
14682;DHT22;7429;52.498;13.480;2022-09-06T04:00:35;14.50;99.90
14682;DHT22;7429;52.498;13.480;2022-09-06T04:03:40;14.50;99.90
14682;DHT22;7429;52.498;13.480;2022-09-06T04:06:43;14.40;99.90
14682;DHT22;7429;52.498;13.480;2022-09-06T04:09:46;14.50;99.90
14682;DHT22;7429;52.498;13.480;2022-09-06T04:12:49;14.50;99.90
14682;DHT22;7429;52.498;13.480;2022-09-06T04:15:52;14.50;99.90
14682;DHT22;7429;52.498;13.480;2022-09-06T04:18:57;14.40;99.90
14682;DHT22;7429;52.498;13.480;2022-09-06T04:22:02;14.40;99.90
14682;DHT22;7429;52.498;13.480;2022-09-06T04:25:06;14.40;99.90
14682;DHT22;7429;52.498;13.480;2022-09-06T04:28:10;14.40;99.90
14682;DHT22;7429;52.498;13.480;2022-09-06T04:31:13;14.30;99.90
14682;DHT22;7429;52.498;13.480;2022-09-06T04:34:18;14.30;99.90
14682;DHT22;7429;52.498;13.480;2022-09-06T04:37:21;14.30;99.90
14682;DHT22;7429;52.498;13.480;2022-09-06T04:40:24;14.30;99.90
14682;DHT22;7429;52.498;13.480;2022-09-06T04:43:27;14.30;99.90
14682;DHT22;7429;52.498;13.480;2022-09-06T04:46:30;14.30;99.90
14682;DHT22;7429;52.498;13.480;2022-09-06T04:49:34;14.20;99.90
14682;DHT22;7429;52.498;13.480;2022-09-06T04:52:37;14.30;99.90
14682;DHT22;7429;52.498;13.480;2022-09-06T04:55:41;14.20;99.90
14682;DHT22;7429;52.498;13.480;2022-09-06T04:58:45;14.30;99.90
14682;DHT22;7429;52.498;13.480;2022-09-06T05:01:49;14.30;99.90
14682;DHT22;7429;52.498;13.480;2022-09-06T05:04:53;14.20;99.90
14682;DHT22;7429;52.498;13.480;2022-09-06T05:07:57;14.20;99.90
14682;DHT22;7429;52.498;13.480;2022-09-06T05:11:00;14.20;99.90
14682;DHT22;7429;52.498;13.480;2022-09-06T05:14:03;14.30;99.90
14682;DHT22;7429;52.498;13.480;2022-09-06T05:17:06;14.30;99.90
14682;DHT22;7429;52.498;13.480;2022-09-06T05:20:11;14.30;99.90
14682;DHT22;7429;52.498;13.480;2022-09-06T05:23:15;14.30;99.90
14682;DHT22;7429;52.498;13.480;2022-09-06T05:26:18;14.30;99.90
14682;DHT22;7429;52.498;13.480;2022-09-06T05:29:21;14.30;99.90
14682;DHT22;7429;52.498;13.480;2022-09-06T05:32:29;14.40;99.90
14682;DHT22;7429;52.498;13.480;2022-09-06T05:35:33;14.40;99.90
14682;DHT22;7429;52.498;13.480;2022-09-06T05:38:36;14.40;99.90
14682;DHT22;7429;52.498;13.480;2022-09-06T05:41:39;14.40;99.90
14682;DHT22;7429;52.498;13.480;2022-09-06T05:44:42;14.40;99.90
14682;DHT22;7429;52.498;13.480;2022-09-06T05:47:46;14.50;99.90
14682;DHT22;7429;52.498;13.480;2022-09-06T05:51:00;14.50;99.90
14682;DHT22;7429;52.498;13.480;2022-09-06T05:54:04;14.60;99.90
14682;DHT22;7429;52.498;13.480;2022-09-06T05:57:07;14.70;99.90
14682;DHT22;7429;52.498;13.480;2022-09-06T06:00:11;14.70;99.90
14682;DHT22;7429;52.498;13.480;2022-09-06T06:03:15;14.80;99.90
14682;DHT22;7429;52.498;13.480;2022-09-06T06:06:20;14.90;99.90
14682;DHT22;7429;52.498;13.480;2022-09-06T06:09:23;14.90;99.90
14682;DHT22;7429;52.498;13.480;2022-09-06T06:12:26;14.90;99.90
14682;DHT22;7429;52.498;13.480;2022-09-06T06:15:29;14.90;99.90
14682;DHT22;7429;52.498;13.480;2022-09-06T06:18:33;14.90;99.90
14682;DHT22;7429;52.498;13.480;2022-09-06T06:21:37;14.90;99.90
14682;DHT22;7429;52.498;13.480;2022-09-06T06:24:40;15.00;99.90
14682;DHT22;7429;52.498;13.480;2022-09-06T06:27:43;15.10;99.90
14682;DHT22;7429;52.498;13.480;2022-09-06T06:30:46;15.10;99.90
14682;DHT22;7429;52.498;13.480;2022-09-06T06:33:50;15.10;99.90
14682;DHT22;7429;52.498;13.480;2022-09-06T06:36:55;15.20;99.90
14682;DHT22;7429;52.498;13.480;2022-09-06T06:39:59;15.30;99.90
14682;DHT22;7429;52.498;13.480;2022-09-06T06:43:02;15.30;99.90
14682;DHT22;7429;52.498;13.480;2022-09-06T06:46:06;15.40;99.90
14682;DHT22;7429;52.498;13.480;2022-09-06T06:49:10;15.50;99.90
14682;DHT22;7429;52.498;13.480;2022-09-06T06:52:14;15.50;99.90
14682;DHT22;7429;52.498;13.480;2022-09-06T06:55:17;15.70;99.90
14682;DHT22;7429;52.498;13.480;2022-09-06T06:58:20;15.70;99.90
14682;DHT22;7429;52.498;13.480;2022-09-06T07:01:25;15.80;99.90
14682;DHT22;7429;52.498;13.480;2022-09-06T07:04:30;15.90;99.90
14682;DHT22;7429;52.498;13.480;2022-09-06T07:07:35;16.00;99.90
14682;DHT22;7429;52.498;13.480;2022-09-06T07:10:41;16.10;99.90
14682;DHT22;7429;52.498;13.480;2022-09-06T07:13:44;16.20;99.90
14682;DHT22;7429;52.498;13.480;2022-09-06T07:16:47;16.30;99.90
14682;DHT22;7429;52.498;13.480;2022-09-06T07:19:52;16.30;99.90
14682;DHT22;7429;52.498;13.480;2022-09-06T07:23:17;16.40;99.90
14682;DHT22;7429;52.498;13.480;2022-09-06T07:26:40;16.70;99.90
14682;DHT22;7429;52.498;13.480;2022-09-06T07:29:43;16.70;99.90
14682;DHT22;7429;52.498;13.480;2022-09-06T07:32:46;16.80;99.90
14682;DHT22;7429;52.498;13.480;2022-09-06T07:35:56;16.80;99.90
14682;DHT22;7429;52.498;13.480;2022-09-06T07:39:02;16.90;99.90
14682;DHT22;7429;52.498;13.480;2022-09-06T07:42:05;16.80;99.90
14682;DHT22;7429;52.498;13.480;2022-09-06T07:45:11;16.90;99.90
14682;DHT22;7429;52.498;13.480;2022-09-06T07:48:14;17.00;99.90
14682;DHT22;7429;52.498;13.480;2022-09-06T07:51:19;17.10;99.90
14682;DHT22;7429;52.498;13.480;2022-09-06T07:54:24;17.10;99.90
14682;DHT22;7429;52.498;13.480;2022-09-06T07:57:31;17.20;99.90
14682;DHT22;7429;52.498;13.480;2022-09-06T08:00:34;17.30;99.90
14682;DHT22;7429;52.498;13.480;2022-09-06T08:03:37;17.40;99.90
14682;DHT22;7429;52.498;13.480;2022-09-06T08:06:42;17.60;99.90
14682;DHT22;7429;52.498;13.480;2022-09-06T08:10:07;17.70;99.90
14682;DHT22;7429;52.498;13.480;2022-09-06T08:13:11;17.70;99.90
14682;DHT22;7429;52.498;13.480;2022-09-06T08:16:14;17.80;99.90
14682;DHT22;7429;52.498;13.480;2022-09-06T08:19:18;17.80;99.90
14682;DHT22;7429;52.498;13.480;2022-09-06T08:22:21;17.90;99.90
14682;DHT22;7429;52.498;13.480;2022-09-06T08:25:25;18.00;99.90
14682;DHT22;7429;52.498;13.480;2022-09-06T08:28:28;18.10;99.90
14682;DHT22;7429;52.498;13.480;2022-09-06T08:31:32;18.10;99.90
14682;DHT22;7429;52.498;13.480;2022-09-06T08:34:36;18.10;99.90
14682;DHT22;7429;52.498;13.480;2022-09-06T08:37:39;18.20;99.90
14682;DHT22;7429;52.498;13.480;2022-09-06T08:40:43;18.10;99.90
14682;DHT22;7429;52.498;13.480;2022-09-06T08:43:50;18.20;99.90
14682;DHT22;7429;52.498;13.480;2022-09-06T08:47:16;18.30;99.90
14682;DHT22;7429;52.498;13.480;2022-09-06T08:50:20;18.40;99.90
14682;DHT22;7429;52.498;13.480;2022-09-06T08:53:25;18.40;99.90
14682;DHT22;7429;52.498;13.480;2022-09-06T08:56:34;18.50;99.90
14682;DHT22;7429;52.498;13.480;2022-09-06T08:59:40;18.50;99.90
14682;DHT22;7429;52.498;13.480;2022-09-06T09:02:46;18.70;99.90
14682;DHT22;7429;52.498;13.480;2022-09-06T09:05:52;18.80;99.90
14682;DHT22;7429;52.498;13.480;2022-09-06T09:08:59;18.90;99.90
14682;DHT22;7429;52.498;13.480;2022-09-06T09:12:07;18.90;99.90
14682;DHT22;7429;52.498;13.480;2022-09-06T09:15:22;18.90;99.90
14682;DHT22;7429;52.498;13.480;2022-09-06T09:18:28;18.90;99.90
14682;DHT22;7429;52.498;13.480;2022-09-06T09:21:35;18.90;99.90
14682;DHT22;7429;52.498;13.480;2022-09-06T09:24:39;19.00;99.90
14682;DHT22;7429;52.498;13.480;2022-09-06T09:27:44;19.10;99.90
14682;DHT22;7429;52.498;13.480;2022-09-06T09:30:50;19.10;99.90
14682;DHT22;7429;52.498;13.480;2022-09-06T09:33:54;19.30;99.90
14682;DHT22;7429;52.498;13.480;2022-09-06T09:37:11;19.50;99.90
14682;DHT22;7429;52.498;13.480;2022-09-06T09:40:37;19.70;99.90
14682;DHT22;7429;52.498;13.480;2022-09-06T09:43:54;19.90;99.90
14682;DHT22;7429;52.498;13.480;2022-09-06T09:47:21;19.80;99.90
14682;DHT22;7429;52.498;13.480;2022-09-06T09:50:28;19.80;99.90
14682;DHT22;7429;52.498;13.480;2022-09-06T09:53:32;19.90;99.90
14682;DHT22;7429;52.498;13.480;2022-09-06T09:56:43;19.90;99.90
14682;DHT22;7429;52.498;13.480;2022-09-06T09:59:51;19.90;99.90
14682;DHT22;7429;52.498;13.480;2022-09-06T10:02:56;20.00;99.90
14682;DHT22;7429;52.498;13.480;2022-09-06T10:06:00;20.10;99.90
14682;DHT22;7429;52.498;13.480;2022-09-06T10:09:15;20.10;99.90
14682;DHT22;7429;52.498;13.480;2022-09-06T10:12:27;20.20;99.90
14682;DHT22;7429;52.498;13.480;2022-09-06T10:15:34;20.30;99.90
14682;DHT22;7429;52.498;13.480;2022-09-06T10:18:40;20.20;99.90
14682;DHT22;7429;52.498;13.480;2022-09-06T10:21:44;20.30;99.90
14682;DHT22;7429;52.498;13.480;2022-09-06T10:25:08;20.40;99.90
14682;DHT22;7429;52.498;13.480;2022-09-06T10:28:39;20.50;99.90
14682;DHT22;7429;52.498;13.480;2022-09-06T10:32:05;20.60;99.90
14682;DHT22;7429;52.498;13.480;2022-09-06T10:35:19;20.50;99.90
14682;DHT22;7429;52.498;13.480;2022-09-06T10:38:34;20.50;99.90
14682;DHT22;7429;52.498;13.480;2022-09-06T10:42:00;20.40;99.90
14682;DHT22;7429;52.498;13.480;2022-09-06T10:45:17;20.50;99.90
14682;DHT22;7429;52.498;13.480;2022-09-06T10:48:29;20.50;99.90
14682;DHT22;7429;52.498;13.480;2022-09-06T10:51:36;20.50;99.90
14682;DHT22;7429;52.498;13.480;2022-09-06T10:54:40;20.50;99.90
14682;DHT22;7429;52.498;13.480;2022-09-06T10:57:50;20.50;99.90
14682;DHT22;7429;52.498;13.480;2022-09-06T11:01:21;20.60;99.90
14682;DHT22;7429;52.498;13.480;2022-09-06T11:04:34;20.80;99.90
14682;DHT22;7429;52.498;13.480;2022-09-06T11:08:01;20.80;99.90
14682;DHT22;7429;52.498;13.480;2022-09-06T11:11:31;20.90;99.90
14682;DHT22;7429;52.498;13.480;2022-09-06T11:14:38;20.90;99.90
14682;DHT22;7429;52.498;13.480;2022-09-06T11:17:45;21.00;99.90
14682;DHT22;7429;52.498;13.480;2022-09-06T11:21:06;21.10;99.90
14682;DHT22;7429;52.498;13.480;2022-09-06T11:24:27;21.10;99.90
14682;DHT22;7429;52.498;13.480;2022-09-06T11:27:39;21.40;99.90
14682;DHT22;7429;52.498;13.480;2022-09-06T11:30:45;21.60;99.90
14682;DHT22;7429;52.498;13.480;2022-09-06T11:34:01;21.70;99.90
14682;DHT22;7429;52.498;13.480;2022-09-06T11:37:23;21.70;99.90
14682;DHT22;7429;52.498;13.480;2022-09-06T11:40:34;21.60;99.90
14682;DHT22;7429;52.498;13.480;2022-09-06T11:43:44;21.60;99.90
14682;DHT22;7429;52.498;13.480;2022-09-06T11:47:01;21.50;99.90
14682;DHT22;7429;52.498;13.480;2022-09-06T11:50:25;21.50;99.90
14682;DHT22;7429;52.498;13.480;2022-09-06T11:54:21;21.50;99.90
14682;DHT22;7429;52.498;13.480;2022-09-06T11:57:28;21.60;99.90
14682;DHT22;7429;52.498;13.480;2022-09-06T12:00:32;21.50;99.90
14682;DHT22;7429;52.498;13.480;2022-09-06T12:04:01;21.40;99.90
14682;DHT22;7429;52.498;13.480;2022-09-06T12:07:11;21.40;99.90
14682;DHT22;7429;52.498;13.480;2022-09-06T12:10:44;21.40;99.90
14682;DHT22;7429;52.498;13.480;2022-09-06T12:14:02;21.30;99.90
14682;DHT22;7429;52.498;13.480;2022-09-06T12:17:24;21.30;99.90
14682;DHT22;7429;52.498;13.480;2022-09-06T12:21:00;21.40;99.90
14682;DHT22;7429;52.498;13.480;2022-09-06T12:24:06;21.40;99.90
14682;DHT22;7429;52.498;13.480;2022-09-06T12:27:12;21.50;99.90
14682;DHT22;7429;52.498;13.480;2022-09-06T12:30:30;21.50;99.90
14682;DHT22;7429;52.498;13.480;2022-09-06T12:33:36;21.50;99.90
14682;DHT22;7429;52.498;13.480;2022-09-06T12:36:53;21.60;99.90
14682;DHT22;7429;52.498;13.480;2022-09-06T12:39:59;21.70;99.90
14682;DHT22;7429;52.498;13.480;2022-09-06T12:43:04;21.80;99.90
14682;DHT22;7429;52.498;13.480;2022-09-06T12:46:07;21.80;99.90
14682;DHT22;7429;52.498;13.480;2022-09-06T12:49:11;21.80;99.90
14682;DHT22;7429;52.498;13.480;2022-09-06T12:52:18;21.80;99.90
14682;DHT22;7429;52.498;13.480;2022-09-06T12:55:26;21.80;99.90
14682;DHT22;7429;52.498;13.480;2022-09-06T12:58:30;21.80;99.90
14682;DHT22;7429;52.498;13.480;2022-09-06T13:01:34;21.90;99.90
14682;DHT22;7429;52.498;13.480;2022-09-06T13:04:41;21.90;99.90
14682;DHT22;7429;52.498;13.480;2022-09-06T13:07:49;22.00;99.90
14682;DHT22;7429;52.498;13.480;2022-09-06T13:10:55;22.00;99.90
14682;DHT22;7429;52.498;13.480;2022-09-06T13:13:59;22.10;99.90
14682;DHT22;7429;52.498;13.480;2022-09-06T13:17:04;22.20;99.90
14682;DHT22;7429;52.498;13.480;2022-09-06T13:20:12;22.10;99.90
14682;DHT22;7429;52.498;13.480;2022-09-06T13:23:19;22.20;99.90
14682;DHT22;7429;52.498;13.480;2022-09-06T13:26:35;22.20;99.90
14682;DHT22;7429;52.498;13.480;2022-09-06T13:29:53;22.20;99.90
14682;DHT22;7429;52.498;13.480;2022-09-06T13:33:00;22.20;99.90
14682;DHT22;7429;52.498;13.480;2022-09-06T13:36:17;22.20;99.90
14682;DHT22;7429;52.498;13.480;2022-09-06T13:39:30;22.10;99.90
14682;DHT22;7429;52.498;13.480;2022-09-06T13:42:35;22.00;99.90
14682;DHT22;7429;52.498;13.480;2022-09-06T13:45:39;22.00;99.90
14682;DHT22;7429;52.498;13.480;2022-09-06T13:48:42;22.10;99.90
14682;DHT22;7429;52.498;13.480;2022-09-06T13:51:45;22.20;99.90
14682;DHT22;7429;52.498;13.480;2022-09-06T13:54:48;22.30;99.90
14682;DHT22;7429;52.498;13.480;2022-09-06T13:57:53;22.60;99.90
14682;DHT22;7429;52.498;13.480;2022-09-06T14:00:57;22.90;99.90
14682;DHT22;7429;52.498;13.480;2022-09-06T14:04:01;22.90;99.90
14682;DHT22;7429;52.498;13.480;2022-09-06T14:07:05;23.00;99.90
14682;DHT22;7429;52.498;13.480;2022-09-06T14:10:09;22.70;99.90
14682;DHT22;7429;52.498;13.480;2022-09-06T14:13:14;22.70;99.90
14682;DHT22;7429;52.498;13.480;2022-09-06T14:16:17;22.90;99.90
14682;DHT22;7429;52.498;13.480;2022-09-06T14:19:22;23.20;99.90
14682;DHT22;7429;52.498;13.480;2022-09-06T14:22:25;23.60;99.90
14682;DHT22;7429;52.498;13.480;2022-09-06T14:25:28;23.80;99.90
14682;DHT22;7429;52.498;13.480;2022-09-06T14:28:34;23.60;99.90
14682;DHT22;7429;52.498;13.480;2022-09-06T14:31:37;23.40;99.90
14682;DHT22;7429;52.498;13.480;2022-09-06T14:34:40;23.10;99.90
14682;DHT22;7429;52.498;13.480;2022-09-06T14:37:44;23.20;99.90
14682;DHT22;7429;52.498;13.480;2022-09-06T14:40:47;23.40;99.90
14682;DHT22;7429;52.498;13.480;2022-09-06T14:43:53;23.40;99.90
14682;DHT22;7429;52.498;13.480;2022-09-06T14:46:57;23.50;99.90
14682;DHT22;7429;52.498;13.480;2022-09-06T14:50:00;23.80;99.90
14682;DHT22;7429;52.498;13.480;2022-09-06T14:53:04;23.70;99.90
14682;DHT22;7429;52.498;13.480;2022-09-06T14:56:28;23.70;99.90
14682;DHT22;7429;52.498;13.480;2022-09-06T14:59:32;23.50;99.90
14682;DHT22;7429;52.498;13.480;2022-09-06T15:02:35;23.50;99.90
14682;DHT22;7429;52.498;13.480;2022-09-06T15:05:39;23.60;99.90
14682;DHT22;7429;52.498;13.480;2022-09-06T15:08:43;23.50;99.90
14682;DHT22;7429;52.498;13.480;2022-09-06T15:11:47;23.60;99.90
14682;DHT22;7429;52.498;13.480;2022-09-06T15:14:53;23.70;99.90
14682;DHT22;7429;52.498;13.480;2022-09-06T15:17:56;23.80;99.90
14682;DHT22;7429;52.498;13.480;2022-09-06T15:21:07;23.80;99.90
14682;DHT22;7429;52.498;13.480;2022-09-06T15:24:11;23.70;99.90
14682;DHT22;7429;52.498;13.480;2022-09-06T15:27:14;23.70;99.90
14682;DHT22;7429;52.498;13.480;2022-09-06T15:30:18;23.60;99.90
14682;DHT22;7429;52.498;13.480;2022-09-06T15:33:23;23.60;99.90
14682;DHT22;7429;52.498;13.480;2022-09-06T15:36:26;23.60;99.90
14682;DHT22;7429;52.498;13.480;2022-09-06T15:39:30;23.40;99.90
14682;DHT22;7429;52.498;13.480;2022-09-06T15:42:34;23.10;99.90
14682;DHT22;7429;52.498;13.480;2022-09-06T15:45:45;22.80;99.90
14682;DHT22;7429;52.498;13.480;2022-09-06T15:48:50;22.70;99.90
14682;DHT22;7429;52.498;13.480;2022-09-06T15:51:55;22.70;99.90
14682;DHT22;7429;52.498;13.480;2022-09-06T15:54:58;22.70;99.90
14682;DHT22;7429;52.498;13.480;2022-09-06T15:58:19;22.70;99.90
14682;DHT22;7429;52.498;13.480;2022-09-06T16:01:24;22.70;99.90
14682;DHT22;7429;52.498;13.480;2022-09-06T16:04:28;22.60;99.90
14682;DHT22;7429;52.498;13.480;2022-09-06T16:07:31;22.50;99.90
14682;DHT22;7429;52.498;13.480;2022-09-06T16:10:37;22.50;99.90
14682;DHT22;7429;52.498;13.480;2022-09-06T16:13:41;22.50;99.90
14682;DHT22;7429;52.498;13.480;2022-09-06T16:16:46;22.60;99.90
14682;DHT22;7429;52.498;13.480;2022-09-06T16:19:49;22.60;99.90
14682;DHT22;7429;52.498;13.480;2022-09-06T16:22:53;22.60;99.90
14682;DHT22;7429;52.498;13.480;2022-09-06T16:25:56;22.50;99.90
14682;DHT22;7429;52.498;13.480;2022-09-06T16:29:00;22.40;99.90
14682;DHT22;7429;52.498;13.480;2022-09-06T16:32:05;22.40;99.90
14682;DHT22;7429;52.498;13.480;2022-09-06T16:35:10;22.30;99.90
14682;DHT22;7429;52.498;13.480;2022-09-06T16:38:13;22.20;99.90
14682;DHT22;7429;52.498;13.480;2022-09-06T16:41:18;22.20;99.90
14682;DHT22;7429;52.498;13.480;2022-09-06T16:44:23;22.10;99.90
14682;DHT22;7429;52.498;13.480;2022-09-06T16:47:28;22.00;99.90
14682;DHT22;7429;52.498;13.480;2022-09-06T16:50:32;21.90;99.90
14682;DHT22;7429;52.498;13.480;2022-09-06T16:53:36;21.90;99.90
14682;DHT22;7429;52.498;13.480;2022-09-06T16:56:41;21.80;99.90
14682;DHT22;7429;52.498;13.480;2022-09-06T16:59:44;21.90;99.90
14682;DHT22;7429;52.498;13.480;2022-09-06T17:02:48;21.80;99.90
14682;DHT22;7429;52.498;13.480;2022-09-06T17:05:52;21.80;99.90
14682;DHT22;7429;52.498;13.480;2022-09-06T17:08:56;21.80;99.90
14682;DHT22;7429;52.498;13.480;2022-09-06T17:12:00;21.80;99.90
14682;DHT22;7429;52.498;13.480;2022-09-06T17:15:04;21.70;99.90
14682;DHT22;7429;52.498;13.480;2022-09-06T17:18:09;21.60;99.90
14682;DHT22;7429;52.498;13.480;2022-09-06T17:21:11;21.60;99.90
14682;DHT22;7429;52.498;13.480;2022-09-06T17:24:14;21.50;99.90
14682;DHT22;7429;52.498;13.480;2022-09-06T17:27:17;21.50;99.90
14682;DHT22;7429;52.498;13.480;2022-09-06T17:30:21;21.40;99.90
14682;DHT22;7429;52.498;13.480;2022-09-06T17:33:25;21.40;99.90
14682;DHT22;7429;52.498;13.480;2022-09-06T17:36:30;21.30;99.90
14682;DHT22;7429;52.498;13.480;2022-09-06T17:39:34;21.30;99.90
14682;DHT22;7429;52.498;13.480;2022-09-06T17:42:37;21.20;99.90
14682;DHT22;7429;52.498;13.480;2022-09-06T17:45:41;21.10;99.90
14682;DHT22;7429;52.498;13.480;2022-09-06T17:48:46;21.10;99.90
14682;DHT22;7429;52.498;13.480;2022-09-06T17:51:49;21.10;99.90
14682;DHT22;7429;52.498;13.480;2022-09-06T17:54:52;21.10;99.90
14682;DHT22;7429;52.498;13.480;2022-09-06T17:57:56;21.00;99.90
14682;DHT22;7429;52.498;13.480;2022-09-06T18:01:01;21.00;99.90
14682;DHT22;7429;52.498;13.480;2022-09-06T18:04:07;21.00;99.90
14682;DHT22;7429;52.498;13.480;2022-09-06T18:07:11;20.90;99.90
14682;DHT22;7429;52.498;13.480;2022-09-06T18:10:14;20.90;99.90
14682;DHT22;7429;52.498;13.480;2022-09-06T18:13:18;20.90;99.90
14682;DHT22;7429;52.498;13.480;2022-09-06T18:16:21;20.90;99.90
14682;DHT22;7429;52.498;13.480;2022-09-06T18:19:26;20.90;99.90
14682;DHT22;7429;52.498;13.480;2022-09-06T18:22:29;20.80;99.90
14682;DHT22;7429;52.498;13.480;2022-09-06T18:25:33;20.80;99.90
14682;DHT22;7429;52.498;13.480;2022-09-06T18:28:36;20.70;99.90
14682;DHT22;7429;52.498;13.480;2022-09-06T18:31:40;20.70;99.90
14682;DHT22;7429;52.498;13.480;2022-09-06T18:34:45;20.70;99.90
14682;DHT22;7429;52.498;13.480;2022-09-06T18:37:48;20.70;99.90
14682;DHT22;7429;52.498;13.480;2022-09-06T18:40:53;20.60;99.90
14682;DHT22;7429;52.498;13.480;2022-09-06T18:43:57;20.60;99.90
14682;DHT22;7429;52.498;13.480;2022-09-06T18:47:03;20.50;99.90
14682;DHT22;7429;52.498;13.480;2022-09-06T18:50:09;20.50;99.90
14682;DHT22;7429;52.498;13.480;2022-09-06T18:53:12;20.40;99.90
14682;DHT22;7429;52.498;13.480;2022-09-06T18:56:19;20.40;99.90
14682;DHT22;7429;52.498;13.480;2022-09-06T18:59:22;20.30;99.90
14682;DHT22;7429;52.498;13.480;2022-09-06T19:02:25;20.30;99.90
14682;DHT22;7429;52.498;13.480;2022-09-06T19:05:33;20.30;99.90
14682;DHT22;7429;52.498;13.480;2022-09-06T19:08:37;20.20;99.90
14682;DHT22;7429;52.498;13.480;2022-09-06T19:11:41;20.10;99.90
14682;DHT22;7429;52.498;13.480;2022-09-06T19:14:46;20.10;99.90
14682;DHT22;7429;52.498;13.480;2022-09-06T19:17:49;20.00;99.90
14682;DHT22;7429;52.498;13.480;2022-09-06T19:20:58;20.00;99.90
14682;DHT22;7429;52.498;13.480;2022-09-06T19:24:04;20.00;99.90
14682;DHT22;7429;52.498;13.480;2022-09-06T19:27:09;19.90;99.90
14682;DHT22;7429;52.498;13.480;2022-09-06T19:30:12;19.90;99.90
14682;DHT22;7429;52.498;13.480;2022-09-06T19:33:16;19.80;99.90
14682;DHT22;7429;52.498;13.480;2022-09-06T19:36:21;19.80;99.90
14682;DHT22;7429;52.498;13.480;2022-09-06T19:39:25;19.80;99.90